Terminal Aerodrome Forecast
Issued by NWS

Home | Current Version | Previous Version | Text Only | Print | Product List | Glossary On
Versions: 1 2 3 4 5 6 7 8 9 10 11 12 13 14 15 16 17 18 19
000
FTUS41 KCAR 250319 AAD
TAFHUL
TAF AMD
KHUL 250319Z 2503/2524 35007KT 3SM -SN BR OVC035
     FM250500 32010KT 5SM -SN SCT015 OVC025
     FM251000 30010G20KT P6SM SCT025 OVC040
     FM251400 28010G22KT P6SM BKN050=

USA.gov is the U.S. government's official web portal to all federal, state and local government web resources and services.